Incourt, Belgium
Current Conditions -  °F | °C
As of 8:25 PM on Friday 19 Dec 2014 (Local Time) from EBBE Reporting Station
Clear Clear  
Wind Chill:   Ceiling: Unl
Heat Index:   Visibility: 6mi
Dew Point:   Wind: 9mph
Humidity: 81%   Direction: 250°WSW
Pressure: 30.12"   Gusts: NA
Location:  50.69°N, 4.8°E
Report Text: EBBE 191925Z AUTO 25008KT 9999 NCD 05/02 Q1020 BLU
Loading
Personal Weather Stations






























Interactive Weather Map New forecast layout! Learn more

10-Day Weather Forecast

Advertisements
Track Severe Weather on mobile